TimeEDT,TemperatureF,Dew PointF,Humidity,Sea Level PressureIn,VisibilityMPH,Wind Direction,Wind SpeedMPH,Gust SpeedMPH,PrecipitationIn,Events,Conditions,WindDirDegrees,DateUTC
12:51 AM,34.0,32.0,92,30.47,10.0,Calm,Calm,-,N/A,,Clear,0,2013-10-09 04:51:00
1:51 AM,34.0,32.0,92,30.48,10.0,Calm,Calm,-,N/A,,Clear,0,2013-10-09 05:51:00
2:14 AM,33.8,32.0,93,30.45,2.0,Calm,Calm,-,N/A,,Scattered Clouds,0,2013-10-09 06:14:00
2:16 AM,33.8,32.0,93,30.45,0.8,Calm,Calm,-,N/A,,Mist,0,2013-10-09 06:16:00
2:51 AM,32.0,30.9,96,30.49,0.5,Calm,Calm,-,N/A,Fog,Fog,0,2013-10-09 06:51:00
3:01 AM,32.0,30.2,93,30.45,1.2,South,3.5,-,N/A,,Overcast,190,2013-10-09 07:01:00
3:07 AM,32.0,30.2,93,30.45,0.8,Calm,Calm,-,N/A,,Mist,0,2013-10-09 07:07:00
3:51 AM,32.0,32.0,100,30.49,0.2,Calm,Calm,-,N/A,Fog,Fog,0,2013-10-09 07:51:00
4:13 AM,32.0,30.2,93,30.47,1.2,Calm,Calm,-,N/A,,Overcast,0,2013-10-09 08:13:00
4:15 AM,32.0,30.2,93,30.47,0.8,Calm,Calm,-,N/A,,Mist,0,2013-10-09 08:15:00
4:51 AM,32.0,30.9,96,30.51,0.5,Calm,Calm,-,N/A,Fog,Fog,0,2013-10-09 08:51:00
5:51 AM,30.0,30.0,100,30.52,0.5,Calm,Calm,-,N/A,Fog,Light Freezing Fog,0,2013-10-09 09:51:00
6:51 AM,30.0,28.9,96,30.53,0.5,Calm,Calm,-,N/A,Fog,Light Freezing Fog,0,2013-10-09 10:51:00
7:51 AM,30.9,30.9,100,30.55,0.2,Calm,Calm,-,N/A,Fog,Light Freezing Fog,0,2013-10-09 11:51:00
8:19 AM,32.0,32.0,100,30.51,1.2,Calm,Calm,-,N/A,,Overcast,0,2013-10-09 12:19:00
8:21 AM,32.0,32.0,100,30.51,3.0,Calm,Calm,-,N/A,,Overcast,0,2013-10-09 12:21:00
8:23 AM,32.0,32.0,100,30.51,1.8,Calm,Calm,-,N/A,,Overcast,0,2013-10-09 12:23:00
8:27 AM,32.0,30.2,93,30.51,1.0,Calm,Calm,-,N/A,,Mist,0,2013-10-09 12:27:00
8:36 AM,32.0,30.2,93,30.51,0.2,Calm,Calm,-,N/A,Fog,Fog,0,2013-10-09 12:36:00
8:51 AM,32.0,32.0,100,30.55,0.2,Calm,Calm,-,N/A,Fog,Fog,0,2013-10-09 12:51:00
9:46 AM,37.4,37.4,100,30.50,1.2,Calm,Calm,-,N/A,,Overcast,0,2013-10-09 13:46:00
9:48 AM,37.4,37.4,100,30.50,2.5,Calm,Calm,-,N/A,,Overcast,0,2013-10-09 13:48:00
9:51 AM,37.9,37.0,97,30.55,2.0,Calm,Calm,-,N/A,,Overcast,0,2013-10-09 13:51:00
10:09 AM,39.2,39.2,100,30.51,9.0,Calm,Calm,-,N/A,,Scattered Clouds,0,2013-10-09 14:09:00
10:51 AM,44.1,41.0,89,30.54,10.0,ENE,3.5,-,N/A,,Clear,70,2013-10-09 14:51:00
11:51 AM,55.9,36.0,47,30.52,10.0,SSE,8.1,17.3,N/A,,Clear,160,2013-10-09 15:51:00
12:51 PM,57.0,35.1,44,30.51,10.0,SSE,10.4,-,N/A,,Clear,160,2013-10-09 16:51:00
1:51 PM,59.0,34.0,39,30.47,10.0,Variable,4.6,-,N/A,,Clear,0,2013-10-09 17:51:00
2:51 PM,61.0,30.9,32,30.45,10.0,SSE,6.9,-,N/A,,Clear,160,2013-10-09 18:51:00
3:51 PM,61.0,33.1,35,30.44,10.0,South,9.2,-,N/A,,Clear,170,2013-10-09 19:51:00
4:51 PM,60.1,34.0,38,30.44,10.0,South,6.9,-,N/A,,Clear,180,2013-10-09 20:51:00
5:51 PM,52.0,39.9,63,30.43,10.0,SSW,3.5,-,N/A,,Clear,200,2013-10-09 21:51:00
6:51 PM,48.0,36.0,63,30.43,10.0,SW,3.5,-,N/A,,Clear,220,2013-10-09 22:51:00
7:51 PM,48.9,35.1,59,30.44,10.0,Calm,Calm,-,N/A,,Clear,0,2013-10-09 23:51:00
8:51 PM,43.0,35.1,74,30.44,10.0,Calm,Calm,-,N/A,,Clear,0,2013-10-10 00:51:00
9:51 PM,41.0,35.1,79,30.44,10.0,Calm,Calm,-,N/A,,Clear,0,2013-10-10 01:51:00
10:51 PM,39.9,35.1,83,30.43,10.0,Calm,Calm,-,N/A,,Clear,0,2013-10-10 02:51:00
11:51 PM,37.0,35.1,93,30.42,10.0,Calm,Calm,-,N/A,,Clear,0,2013-10-10 03:51:00